createdAt,value
2019-04-20T00:01:18.656Z,4.20
2019-04-20T00:03:47.348Z,4.30
2019-04-20T00:06:21.513Z,4.40
2019-04-20T00:08:59.828Z,4.40
2019-04-20T00:11:29.566Z,4.40
2019-04-20T00:14:05.780Z,4.30
2019-04-20T00:16:29.997Z,4.40
2019-04-20T00:19:03.253Z,4.40
2019-04-20T00:21:42.725Z,4.50
2019-04-20T00:24:16.914Z,4.40
2019-04-20T00:27:10.646Z,4.30
2019-04-20T00:29:36.737Z,4.30
2019-04-20T00:31:59.167Z,4.30
2019-04-20T00:34:26.450Z,4.30
2019-04-20T00:36:52.181Z,4.30
2019-04-20T00:39:23.808Z,4.40
2019-04-20T00:42:00.429Z,4.50
2019-04-20T00:44:30.406Z,4.40
2019-04-20T00:47:08.501Z,4.30
2019-04-20T00:49:45.900Z,4.20
2019-04-20T00:54:36.940Z,4.00
2019-04-20T00:57:20.429Z,4.00
2019-04-20T00:59:59.236Z,4.00
2019-04-20T01:02:27.535Z,3.90
2019-04-20T01:05:09.248Z,3.90
2019-04-20T01:07:38.589Z,3.80
2019-04-20T01:10:13.355Z,3.80
2019-04-20T01:12:44.467Z,3.60
2019-04-20T01:15:25.589Z,3.60
2019-04-20T01:17:48.518Z,3.50
2019-04-20T01:20:19.050Z,3.30
2019-04-20T01:22:56.030Z,3.20
2019-04-20T01:25:28.347Z,3.00
2019-04-20T01:28:07.787Z,2.80
2019-04-20T01:30:37.583Z,2.60
2019-04-20T01:33:18.419Z,2.50
2019-04-20T01:35:50.910Z,2.60
2019-04-20T01:38:29.355Z,2.60
2019-04-20T01:40:40.151Z,2.60
2019-04-20T01:43:12.081Z,2.60
2019-04-20T01:45:45.459Z,2.50
2019-04-20T01:48:23.958Z,2.30
2019-04-20T01:50:59.797Z,2.20
2019-04-20T01:53:44.359Z,2.00
2019-04-20T01:56:20.200Z,2.00
2019-04-20T01:59:00.781Z,2.10
2019-04-20T02:01:29.433Z,2.10
2019-04-20T02:04:00.328Z,2.10
2019-04-20T02:06:39.878Z,2.00
2019-04-20T02:09:13.443Z,2.10
2019-04-20T02:11:42.725Z,2.10
2019-04-20T02:14:13.415Z,2.00
2019-04-20T02:16:49.129Z,2.30
2019-04-20T02:19:31.801Z,2.30
2019-04-20T02:22:03.581Z,2.20
2019-04-20T02:24:19.745Z,2.10
2019-04-20T02:26:51.868Z,2.20
2019-04-20T02:29:45.933Z,2.20
2019-04-20T02:32:42.958Z,2.20
2019-04-20T02:35:14.122Z,2.40
2019-04-20T02:37:56.722Z,2.40
2019-04-20T02:40:21.139Z,2.40
2019-04-20T02:42:51.519Z,2.40
2019-04-20T02:47:53.132Z,2.60
2019-04-20T02:50:34.222Z,2.60
2019-04-20T02:53:06.182Z,2.60
2019-04-20T02:58:05.338Z,2.70
2019-04-20T03:00:31.316Z,2.80
2019-04-20T03:02:48.670Z,3.50
2019-04-20T03:05:21.545Z,4.80
2019-04-20T03:07:57.460Z,6.20
2019-04-20T03:10:43.008Z,7.60
2019-04-20T03:13:08.809Z,8.60
2019-04-20T03:15:38.249Z,9.50
2019-04-20T03:18:11.987Z,10.50
2019-04-20T03:20:43.491Z,11.10
2019-04-20T03:23:23.279Z,11.90
2019-04-20T03:26:07.110Z,12.30
2019-04-20T03:28:50.256Z,12.70
2019-04-20T03:32:04.353Z,13.20
2019-04-20T03:36:44.025Z,14.10
2019-04-20T03:39:03.269Z,14.30
2019-04-20T03:41:24.520Z,15.00
2019-04-20T03:43:49.786Z,15.20
2019-04-20T03:46:30.920Z,14.70
2019-04-20T03:49:09.771Z,15.10
2019-04-20T03:51:53.316Z,15.20
2019-04-20T03:54:29.775Z,15.20
2019-04-20T03:57:18.398Z,15.60
2019-04-20T03:59:54.855Z,16.10
2019-04-20T04:02:37.820Z,16.80
2019-04-20T04:05:15.960Z,17.70
2019-04-20T04:07:43.759Z,18.70
2019-04-20T04:10:25.887Z,17.20
2019-04-20T04:13:03.080Z,16.70
2019-04-20T04:15:38.134Z,15.40
2019-04-20T04:18:15.664Z,16.20
2019-04-20T04:20:46.706Z,16.80
2019-04-20T04:23:33.777Z,14.60
2019-04-20T04:29:16.636Z,14.70
2019-04-20T04:29:40.014Z,15.40
2019-04-20T04:31:36.235Z,14.40
2019-04-20T04:34:16.482Z,15.00
2019-04-20T04:36:50.108Z,14.70
2019-04-20T04:39:29.471Z,14.00
2019-04-20T04:42:07.060Z,15.10
2019-04-20T04:44:23.590Z,15.10
2019-04-20T04:46:50.407Z,15.80
2019-04-20T04:49:20.826Z,15.20
2019-04-20T04:51:56.862Z,15.40
2019-04-20T04:54:28.859Z,17.20
2019-04-20T04:56:52.824Z,17.50
2019-04-20T04:59:29.681Z,16.30
2019-04-20T05:02:01.789Z,15.10
2019-04-20T05:05:11.405Z,15.90
2019-04-20T05:07:39.799Z,16.50
2019-04-20T05:10:01.256Z,17.40
2019-04-20T05:12:34.149Z,16.80
2019-04-20T05:15:13.207Z,16.70
2019-04-20T05:18:01.559Z,16.10
2019-04-20T05:20:35.565Z,15.90
2019-04-20T05:23:22.910Z,15.00
2019-04-20T05:26:13.768Z,16.60
2019-04-20T05:28:43.067Z,17.40
2019-04-20T05:31:09.732Z,17.40
2019-04-20T05:34:06.383Z,17.20
2019-04-20T05:36:31.052Z,16.50
2019-04-20T05:39:13.135Z,14.70
2019-04-20T05:41:42.916Z,15.00
2019-04-20T05:44:13.073Z,16.40
2019-04-20T05:46:59.931Z,17.40
2019-04-20T05:49:27.089Z,18.90
2019-04-20T06:07:06.028Z,17.70
2019-04-20T06:09:55.905Z,17.80
2019-04-20T06:12:25.405Z,18.30
2019-04-20T06:15:04.525Z,18.30
2019-04-20T06:18:02.495Z,19.20
2019-04-20T06:23:20.655Z,17.30
2019-04-20T06:26:03.874Z,17.10
2019-04-20T06:28:22.262Z,15.90
2019-04-20T06:30:48.109Z,15.40
2019-04-20T06:34:27.716Z,15.10
2019-04-20T06:37:06.769Z,15.00
2019-04-20T06:39:22.076Z,14.60
2019-04-20T06:42:08.400Z,13.60
2019-04-20T06:44:30.367Z,12.40
2019-04-20T06:47:04.381Z,11.60
2019-04-20T06:52:15.776Z,11.00
2019-04-20T06:55:00.283Z,10.50
2019-04-20T06:57:49.919Z,10.30
2019-04-20T07:00:11.401Z,10.30
2019-04-20T07:05:24.794Z,10.20
2019-04-20T07:08:06.778Z,10.30
2019-04-20T07:10:31.349Z,10.40
2019-04-20T07:13:01.770Z,10.30
2019-04-20T07:15:36.566Z,10.50
2019-04-20T07:18:15.690Z,10.40
2019-04-20T07:23:31.242Z,10.50
2019-04-20T07:26:12.799Z,10.70
2019-04-20T07:28:41.101Z,10.70
2019-04-20T07:31:17.198Z,10.70
2019-04-20T07:33:54.834Z,10.90
2019-04-20T07:36:30.593Z,10.70
2019-04-20T07:38:57.943Z,10.80
2019-04-20T07:41:32.970Z,10.90
2019-04-20T07:44:18.291Z,10.90
2019-04-20T07:46:47.038Z,11.00
2019-04-20T07:49:07.691Z,11.00
2019-04-20T07:51:28.282Z,11.00
2019-04-20T07:54:27.043Z,11.20
2019-04-20T07:56:47.631Z,11.30
2019-04-20T07:59:09.719Z,11.50
2019-04-20T08:02:00.627Z,11.40
2019-04-20T08:04:30.049Z,11.50
2019-04-20T08:06:50.069Z,11.40
2019-04-20T08:09:25.764Z,11.50
2019-04-20T08:12:15.406Z,11.50
2019-04-20T08:14:46.786Z,11.60
2019-04-20T08:17:20.373Z,11.70
2019-04-20T08:19:45.382Z,11.80
2019-04-20T08:22:19.782Z,11.70
2019-04-20T08:24:45.345Z,11.50
2019-04-20T08:27:09.152Z,11.50
2019-04-20T08:29:54.285Z,11.70
2019-04-20T08:32:30.704Z,11.50
2019-04-20T08:35:05.114Z,11.50
2019-04-20T08:37:40.390Z,11.70
2019-04-20T08:40:17.716Z,11.70
2019-04-20T08:42:57.189Z,12.00
2019-04-20T08:45:16.374Z,11.80
2019-04-20T08:47:56.438Z,11.90
2019-04-20T08:53:09.049Z,12.10
2019-04-20T08:55:26.654Z,11.80
2019-04-20T08:57:37.982Z,11.90
2019-04-20T09:00:11.107Z,11.90
2019-04-20T09:02:48.928Z,12.00
2019-04-20T09:05:32.958Z,12.00
2019-04-20T09:08:02.434Z,11.90
2019-04-20T09:10:42.222Z,12.00
2019-04-20T09:13:09.596Z,12.10
2019-04-20T09:15:27.875Z,12.30
2019-04-20T09:18:05.047Z,11.90
2019-04-20T09:20:45.944Z,12.00
2019-04-20T09:23:21.334Z,12.20
2019-04-20T09:26:02.429Z,12.40
2019-04-20T09:28:27.589Z,12.20
2019-04-20T09:31:09.197Z,12.20
2019-04-20T09:33:48.709Z,12.20
2019-04-20T09:36:17.889Z,12.40
2019-04-20T09:39:08.621Z,12.50
2019-04-20T09:41:57.325Z,12.40
2019-04-20T09:44:04.637Z,12.40
2019-04-20T09:46:40.171Z,12.50
2019-04-20T09:49:20.773Z,12.50
2019-04-20T09:52:05.238Z,12.50
2019-04-20T09:54:37.021Z,12.50
2019-04-20T09:57:09.106Z,12.50
2019-04-20T09:59:37.858Z,12.60
2019-04-20T10:02:03.607Z,12.80
2019-04-20T10:04:29.079Z,12.80
2019-04-20T10:07:07.871Z,12.80
2019-04-20T10:09:37.271Z,12.70
2019-04-20T10:12:03.884Z,12.80
2019-04-20T10:14:35.209Z,12.60
2019-04-20T10:17:05.822Z,12.60
2019-04-20T10:19:40.090Z,12.80
2019-04-20T10:22:14.891Z,12.60
2019-04-20T10:24:49.218Z,12.60
2019-04-20T10:27:20.997Z,12.70
2019-04-20T10:29:53.478Z,12.80
2019-04-20T10:32:34.199Z,12.70
2019-04-20T10:35:02.382Z,12.70
2019-04-20T10:37:37.756Z,12.90
2019-04-20T10:40:08.658Z,12.90
2019-04-20T10:42:41.760Z,13.00
2019-04-20T10:45:12.900Z,12.80
2019-04-20T10:47:45.188Z,12.90
2019-04-20T10:50:16.859Z,12.90
2019-04-20T10:52:49.955Z,13.00
2019-04-20T10:55:20.851Z,13.10
2019-04-20T10:57:51.482Z,13.30
2019-04-20T11:00:25.667Z,13.30
2019-04-20T11:02:57.236Z,13.30
2019-04-20T11:05:32.804Z,13.20
2019-04-20T11:08:04.347Z,13.10
2019-04-20T11:10:50.890Z,13.10
2019-04-20T11:13:09.636Z,13.20
2019-04-20T11:15:42.130Z,13.20
2019-04-20T11:18:15.639Z,13.20
2019-04-20T11:20:46.179Z,13.30
2019-04-20T11:23:16.639Z,13.20
2019-04-20T11:25:48.358Z,13.40
2019-04-20T11:28:19.922Z,13.30
2019-04-20T11:30:54.243Z,13.30
2019-04-20T11:33:36.163Z,13.50
2019-04-20T11:36:07.411Z,13.40
2019-04-20T11:38:40.805Z,13.30
2019-04-20T11:41:18.168Z,13.30
2019-04-20T11:43:43.837Z,13.20
2019-04-20T11:46:16.490Z,13.20
2019-04-20T11:48:47.634Z,13.20
2019-04-20T11:51:21.417Z,13.20
2019-04-20T11:53:54.357Z,13.20
2019-04-20T11:56:29.412Z,13.20
2019-04-20T11:58:59.236Z,13.30
2019-04-20T12:01:47.960Z,13.40
2019-04-20T12:04:26.142Z,13.50
2019-04-20T12:06:49.218Z,13.60
2019-04-20T12:09:19.654Z,13.60
2019-04-20T12:12:05.769Z,13.70
2019-04-20T12:14:22.926Z,13.70
2019-04-20T12:16:53.579Z,13.60
2019-04-20T12:19:27.013Z,13.60
2019-04-20T12:21:56.299Z,13.70
2019-04-20T12:24:26.748Z,13.60
2019-04-20T12:26:58.691Z,13.60
2019-04-20T12:29:29.928Z,13.70
2019-04-20T12:32:03.498Z,13.70
2019-04-20T12:34:34.985Z,13.70
2019-04-20T12:37:07.441Z,13.60
2019-04-20T12:39:37.823Z,13.70
2019-04-20T12:42:14.724Z,13.60
2019-04-20T12:44:48.446Z,13.60
2019-04-20T12:47:21.376Z,13.70
2019-04-20T12:49:52.063Z,13.70
2019-04-20T12:52:26.260Z,13.60
2019-04-20T12:55:00.857Z,13.80
2019-04-20T12:57:32.284Z,13.80
2019-04-20T13:00:17.306Z,13.70
2019-04-20T13:02:49.418Z,13.60
2019-04-20T13:05:22.172Z,13.80
2019-04-20T13:07:59.338Z,13.80
2019-04-20T13:10:29.678Z,14.00
2019-04-20T13:13:12.397Z,14.00
2019-04-20T13:15:44.615Z,14.10
2019-04-20T13:18:25.399Z,14.00
2019-04-20T13:20:57.949Z,13.80
2019-04-20T13:23:28.974Z,13.70
2019-04-20T13:26:07.415Z,13.80
2019-04-20T13:28:43.292Z,13.80
2019-04-20T13:31:22.471Z,14.00
2019-04-20T13:33:53.008Z,14.10
2019-04-20T13:36:28.470Z,13.90
2019-04-20T13:39:03.888Z,13.80
2019-04-20T13:41:35.716Z,13.70
2019-04-20T13:44:06.606Z,13.70
2019-04-20T13:46:37.183Z,13.70
2019-04-20T13:49:13.257Z,13.70
2019-04-20T13:51:44.595Z,13.80
2019-04-20T13:54:19.442Z,13.80
2019-04-20T13:56:52.184Z,13.80
2019-04-20T13:59:44.962Z,13.70
2019-04-20T14:02:17.151Z,13.70
2019-04-20T14:04:51.107Z,13.70
2019-04-20T14:07:24.749Z,13.60
2019-04-20T14:09:55.440Z,13.70
2019-04-20T14:12:32.417Z,13.70
2019-04-20T14:14:59.364Z,13.60
2019-04-20T14:17:30.876Z,13.50
2019-04-20T14:20:07.385Z,13.60
2019-04-20T14:22:34.063Z,13.60
2019-04-20T14:25:06.938Z,13.70
2019-04-20T14:27:39.066Z,13.70
2019-04-20T14:30:12.994Z,13.80
2019-04-20T14:32:44.951Z,13.70
2019-04-20T14:35:16.738Z,13.80
2019-04-20T14:37:47.822Z,13.80
2019-04-20T14:40:22.078Z,13.70
2019-04-20T14:42:55.102Z,13.80
2019-04-20T14:45:27.148Z,13.80
2019-04-20T14:47:59.533Z,13.70
2019-04-20T14:50:31.653Z,13.60
2019-04-20T14:53:02.215Z,13.60
2019-04-20T14:55:33.426Z,13.60
2019-04-20T14:58:05.878Z,13.60
2019-04-20T15:00:53.075Z,13.50
2019-04-20T15:03:26.661Z,13.60
2019-04-20T15:06:00.013Z,13.60
2019-04-20T15:08:44.968Z,13.60
2019-04-20T15:11:16.745Z,13.50
2019-04-20T15:13:50.944Z,13.50
2019-04-20T15:16:28.714Z,13.50
2019-04-20T15:19:05.289Z,13.50
2019-04-20T15:21:45.409Z,13.40
2019-04-20T15:24:17.708Z,13.40
2019-04-20T15:26:48.773Z,13.40
2019-04-20T15:29:20.152Z,13.30
2019-04-20T15:31:52.174Z,13.30
2019-04-20T15:34:22.694Z,13.30
2019-04-20T15:36:54.072Z,13.20
2019-04-20T15:39:27.323Z,13.10
2019-04-20T15:41:59.094Z,13.10
2019-04-20T15:44:31.316Z,13.00
2019-04-20T15:47:01.917Z,13.10
2019-04-20T15:49:35.850Z,13.10
2019-04-20T15:52:19.917Z,13.00
2019-04-20T15:54:47.598Z,13.00
2019-04-20T15:57:22.962Z,13.00
2019-04-20T15:59:50.604Z,12.90
2019-04-20T16:02:29.615Z,12.90
2019-04-20T16:08:21.514Z,12.70
2019-04-20T16:10:59.267Z,12.70
2019-04-20T16:13:44.110Z,12.70
2019-04-20T16:16:12.104Z,12.70
2019-04-20T16:18:45.190Z,12.60
2019-04-20T16:21:21.928Z,12.50
2019-04-20T16:23:52.645Z,12.50
2019-04-20T16:26:25.913Z,12.40
2019-04-20T16:29:04.187Z,12.30
2019-04-20T16:31:33.875Z,12.20
2019-04-20T16:34:07.680Z,12.10
2019-04-20T16:36:38.856Z,12.00
2019-04-20T16:39:11.120Z,12.00
2019-04-20T16:44:47.610Z,11.90
2019-04-20T16:47:30.744Z,11.90
2019-04-20T16:50:01.447Z,11.80
2019-04-20T16:52:34.827Z,11.40
2019-04-20T16:55:08.106Z,11.30
2019-04-20T16:57:39.703Z,11.00
2019-04-20T17:00:16.045Z,10.70
2019-04-20T17:02:47.951Z,10.50
2019-04-20T17:05:18.924Z,10.30
2019-04-20T17:08:00.701Z,10.00
2019-04-20T17:10:32.768Z,9.90
2019-04-20T17:13:06.367Z,9.70
2019-04-20T17:15:39.318Z,9.60
2019-04-20T17:18:15.875Z,9.40
2019-04-20T17:21:16.702Z,9.30
2019-04-20T17:23:43.924Z,9.10
2019-04-20T17:26:16.914Z,9.00
2019-04-20T17:29:01.750Z,8.90
2019-04-20T17:31:49.361Z,8.80
2019-04-20T17:34:41.513Z,8.60
2019-04-20T17:36:54.878Z,8.50
2019-04-20T17:39:31.116Z,8.40
2019-04-20T17:42:17.513Z,8.30
2019-04-20T17:44:46.906Z,8.10
2019-04-20T17:47:28.901Z,8.10
2019-04-20T17:49:59.745Z,8.00
2019-04-20T17:52:36.965Z,7.90
2019-04-20T17:54:49.562Z,7.80
2019-04-20T17:57:21.576Z,7.80
2019-04-20T17:59:58.653Z,7.70
2019-04-20T18:02:53.574Z,7.70
2019-04-20T18:05:37.127Z,7.60
2019-04-20T18:08:13.324Z,7.60
2019-04-20T18:10:58.815Z,7.50
2019-04-20T18:13:25.421Z,7.40
2019-04-20T18:16:22.403Z,7.30
2019-04-20T18:18:59.539Z,7.30
2019-04-20T18:21:26.726Z,7.30
2019-04-20T18:23:58.246Z,7.20
2019-04-20T18:26:48.045Z,7.20
2019-04-20T18:29:26.125Z,7.20
2019-04-20T18:31:47.290Z,7.20
2019-04-20T18:34:27.419Z,7.00
2019-04-20T18:37:00.617Z,7.00
2019-04-20T18:39:40.089Z,7.10
2019-04-20T18:42:10.137Z,7.00
2019-04-20T18:45:02.584Z,6.90
2019-04-20T18:47:33.564Z,6.80
2019-04-20T18:50:01.209Z,6.60
2019-04-20T18:52:23.932Z,6.50
2019-04-20T18:54:57.574Z,6.40
2019-04-20T18:57:29.637Z,6.40
2019-04-20T19:00:07.894Z,6.30
2019-04-20T19:02:48.907Z,6.20
2019-04-20T19:05:15.853Z,6.30
2019-04-20T19:07:55.674Z,6.30
2019-04-20T19:10:27.150Z,6.30
2019-04-20T19:12:59.950Z,6.40
2019-04-20T19:15:43.889Z,6.60
2019-04-20T19:18:11.514Z,6.50
2019-04-20T19:20:39.123Z,6.40
2019-04-20T19:23:10.338Z,6.30
2019-04-20T19:25:42.458Z,6.20
2019-04-20T19:28:14.516Z,6.10
2019-04-20T19:31:00.296Z,6.00
2019-04-20T19:33:37.709Z,5.90
2019-04-20T19:36:09.236Z,5.80
2019-04-20T19:38:37.947Z,5.80
2019-04-20T19:41:16.431Z,5.80
2019-04-20T19:43:45.817Z,5.70
2019-04-20T19:46:39.595Z,5.70
2019-04-20T19:48:48.655Z,5.60
2019-04-20T19:51:28.522Z,5.60
2019-04-20T19:53:59.816Z,5.70
2019-04-20T19:56:33.614Z,5.70
2019-04-20T19:59:01.167Z,5.60
2019-04-20T20:01:17.726Z,5.50
2019-04-20T20:03:57.491Z,5.50
2019-04-20T20:06:29.091Z,5.50
2019-04-20T20:08:57.974Z,5.40
2019-04-20T20:11:34.046Z,5.40
2019-04-20T20:14:04.269Z,5.40
2019-04-20T20:16:55.108Z,5.30
2019-04-20T20:19:12.163Z,5.20
2019-04-20T20:22:00.267Z,5.20
2019-04-20T20:24:17.602Z,5.20
2019-04-20T20:26:53.417Z,5.20
2019-04-20T20:29:28.358Z,5.10
2019-04-20T20:32:08.477Z,5.10
2019-04-20T20:34:32.625Z,5.10
2019-04-20T20:37:04.305Z,5.10
2019-04-20T20:39:34.396Z,5.10
2019-04-20T20:42:15.602Z,5.00
2019-04-20T20:44:45.267Z,5.00
2019-04-20T20:47:31.728Z,5.00
2019-04-20T20:50:08.675Z,4.90
2019-04-20T20:52:27.549Z,5.00
2019-04-20T20:54:56.534Z,4.90
2019-04-20T20:57:22.361Z,4.90
2019-04-20T20:59:55.334Z,4.80
2019-04-20T21:02:33.686Z,4.70
2019-04-20T21:04:53.541Z,4.70
2019-04-20T21:07:24.724Z,4.60
2019-04-20T21:09:56.465Z,4.70
2019-04-20T21:12:36.965Z,4.70
2019-04-20T21:15:08.830Z,4.60
2019-04-20T21:18:03.347Z,4.60
2019-04-20T21:20:20.365Z,4.60
2019-04-20T21:22:58.495Z,4.60
2019-04-20T21:25:32.883Z,4.60
2019-04-20T21:27:57.035Z,4.60
2019-04-20T21:30:34.986Z,4.60
2019-04-20T21:33:03.419Z,4.60
2019-04-20T21:35:39.354Z,4.50
2019-04-20T21:38:08.029Z,4.50
2019-04-20T21:40:39.956Z,4.40
2019-04-20T21:43:09.492Z,4.40
2019-04-20T21:45:48.444Z,4.40
2019-04-20T21:48:31.746Z,4.30
2019-04-20T21:51:07.072Z,4.30
2019-04-20T21:53:25.069Z,4.30
2019-04-20T21:55:52.010Z,4.20
2019-04-20T21:58:28.058Z,4.20
2019-04-20T22:01:05.059Z,4.20
2019-04-20T22:03:27.544Z,4.20
2019-04-20T22:06:06.854Z,4.10
2019-04-20T22:08:39.333Z,4.10
2019-04-20T22:11:09.881Z,4.10
2019-04-20T22:13:43.616Z,4.10
2019-04-20T22:16:14.320Z,4.00
2019-04-20T22:18:54.400Z,4.10
2019-04-20T22:21:26.569Z,4.00
2019-04-20T22:24:05.500Z,3.90
2019-04-20T22:26:31.894Z,3.90
2019-04-20T22:28:54.158Z,3.90
2019-04-20T22:31:26.289Z,4.00
2019-04-20T22:34:00.788Z,3.90
2019-04-20T22:36:34.120Z,3.90
2019-04-20T22:39:09.610Z,3.90
2019-04-20T22:41:53.663Z,3.80
2019-04-20T22:44:21.005Z,3.80
2019-04-20T22:46:50.100Z,3.80
2019-04-20T22:49:35.975Z,3.70
2019-04-20T22:51:59.511Z,3.70
2019-04-20T22:54:39.723Z,3.70
2019-04-20T22:57:11.896Z,3.70
2019-04-20T22:59:44.740Z,3.70
2019-04-20T23:02:07.570Z,3.60
2019-04-20T23:04:37.098Z,3.60
2019-04-20T23:07:08.552Z,3.70
2019-04-20T23:09:45.914Z,3.70
2019-04-20T23:12:15.798Z,3.60
2019-04-20T23:14:44.588Z,3.50
2019-04-20T23:17:18.104Z,3.60
2019-04-20T23:19:52.842Z,3.60
2019-04-20T23:22:20.930Z,3.60
2019-04-20T23:24:51.444Z,3.50
2019-04-20T23:27:26.369Z,3.50
2019-04-20T23:29:55.139Z,3.40
2019-04-20T23:32:28.653Z,3.50
2019-04-20T23:35:05.943Z,3.60
2019-04-20T23:37:33.077Z,3.60
2019-04-20T23:40:03.085Z,3.60
2019-04-20T23:42:44.539Z,3.60
2019-04-20T23:45:26.930Z,3.40
2019-04-20T23:48:04.303Z,3.30
2019-04-20T23:50:47.568Z,3.40
2019-04-20T23:53:25.943Z,3.30
2019-04-20T23:55:36.889Z,3.20
2019-04-20T23:58:10.529Z,3.20
